createdAt,value
2022-12-27T00:00:47.247Z,5.11
2022-12-27T00:01:44.674Z,4.25
2022-12-27T00:02:42.234Z,3.80
2022-12-27T00:03:39.668Z,3.47
2022-12-27T00:04:36.739Z,4.75
2022-12-27T00:05:33.570Z,3.77
2022-12-27T00:06:30.903Z,4.32
2022-12-27T00:07:27.705Z,3.75
2022-12-27T00:08:24.482Z,1.40
2022-12-27T00:09:21.373Z,2.50
2022-12-27T00:10:18.267Z,2.30
2022-12-27T00:11:19.516Z,4.02
2022-12-27T00:12:16.377Z,4.62
2022-12-27T00:13:13.200Z,4.53
2022-12-27T00:14:11.488Z,3.66
2022-12-27T00:15:08.789Z,3.78
2022-12-27T00:16:08.485Z,4.21
2022-12-27T00:17:05.331Z,3.84
2022-12-27T00:18:02.650Z,5.01
2022-12-27T00:18:59.734Z,4.72
2022-12-27T00:19:56.598Z,5.03
2022-12-27T00:20:58.978Z,3.93
2022-12-27T00:21:58.451Z,3.90
2022-12-27T00:22:55.247Z,4.27
2022-12-27T00:23:55.106Z,4.25
2022-12-27T00:24:51.952Z,4.27
2022-12-27T00:25:48.819Z,4.78
2022-12-27T00:26:45.559Z,4.71
2022-12-27T00:27:42.496Z,4.08
2022-12-27T00:28:39.306Z,3.11
2022-12-27T00:29:36.193Z,4.65
2022-12-27T00:30:33.085Z,5.13
2022-12-27T00:31:32.302Z,2.88
2022-12-27T00:32:29.316Z,4.35
2022-12-27T00:33:28.195Z,3.73
2022-12-27T00:34:25.120Z,3.93
2022-12-27T00:35:21.955Z,4.21
2022-12-27T00:36:21.683Z,4.06
2022-12-27T00:37:18.502Z,4.19
2022-12-27T00:38:15.296Z,4.76
2022-12-27T00:39:12.488Z,4.16
2022-12-27T00:40:10.171Z,4.68
2022-12-27T00:41:07.678Z,1.49
2022-12-27T00:42:04.788Z,5.10
2022-12-27T00:43:01.568Z,4.86
2022-12-27T00:43:58.363Z,4.99
2022-12-27T00:44:55.103Z,3.67
2022-12-27T00:45:51.996Z,4.20
2022-12-27T00:46:48.859Z,3.73
2022-12-27T00:47:45.706Z,3.99
2022-12-27T00:48:43.308Z,4.75
2022-12-27T00:49:40.077Z,4.61
2022-12-27T00:50:37.098Z,5.50
2022-12-27T00:51:33.904Z,5.09
2022-12-27T00:52:30.694Z,4.25
2022-12-27T00:53:31.032Z,3.31
2022-12-27T00:54:28.034Z,5.38
2022-12-27T00:55:24.879Z,5.45
2022-12-27T00:56:25.147Z,4.00
2022-12-27T00:57:21.978Z,4.09
2022-12-27T00:58:18.747Z,4.99
2022-12-27T00:59:15.550Z,4.05
2022-12-27T01:00:13.319Z,4.71
2022-12-27T01:01:21.619Z,4.73
2022-12-27T01:02:18.555Z,4.42
2022-12-27T01:03:16.717Z,3.80
2022-12-27T01:04:14.625Z,4.64
2022-12-27T01:05:11.531Z,4.78
2022-12-27T01:06:18.268Z,4.70
2022-12-27T01:07:14.991Z,3.20
2022-12-27T01:08:12.936Z,3.61
2022-12-27T01:09:09.775Z,5.03
2022-12-27T01:10:06.913Z,5.18
2022-12-27T01:11:04.911Z,4.44
2022-12-27T01:12:01.681Z,4.61
2022-12-27T01:13:00.994Z,4.90
2022-12-27T01:14:03.085Z,3.79
2022-12-27T01:14:59.988Z,3.19
2022-12-27T01:15:57.112Z,3.99
2022-12-27T01:16:54.006Z,3.71
2022-12-27T01:17:50.953Z,3.64
2022-12-27T01:18:48.744Z,3.76
2022-12-27T01:19:45.570Z,4.57
2022-12-27T01:20:42.355Z,4.54
2022-12-27T01:21:39.240Z,3.31
2022-12-27T01:22:36.123Z,4.88
2022-12-27T01:23:32.895Z,3.93
2022-12-27T01:24:29.650Z,4.11
2022-12-27T01:25:26.527Z,3.02
2022-12-27T01:26:24.648Z,3.57
2022-12-27T01:27:21.504Z,4.13
2022-12-27T01:28:18.289Z,4.65
2022-12-27T01:29:15.174Z,4.03
2022-12-27T01:30:12.523Z,4.89
2022-12-27T01:31:13.902Z,4.04
2022-12-27T01:32:10.829Z,3.71
2022-12-27T01:33:07.577Z,3.60
2022-12-27T01:34:04.389Z,3.85
2022-12-27T01:35:01.463Z,2.50
2022-12-27T01:35:58.303Z,3.39
2022-12-27T01:36:55.112Z,3.74
2022-12-27T01:37:52.193Z,3.62
2022-12-27T01:38:49.800Z,3.70
2022-12-27T01:39:46.647Z,3.56
2022-12-27T01:40:43.447Z,4.83
2022-12-27T01:42:01.586Z,3.97
2022-12-27T01:42:58.341Z,3.78
2022-12-27T01:43:55.099Z,1.72
2022-12-27T01:44:56.919Z,4.70
2022-12-27T01:45:53.984Z,4.69
2022-12-27T01:46:51.075Z,4.84
2022-12-27T01:47:57.038Z,4.68
2022-12-27T01:48:55.595Z,4.24
2022-12-27T01:49:55.295Z,4.31
2022-12-27T01:51:01.152Z,3.54
2022-12-27T01:51:58.768Z,3.77
2022-12-27T01:52:56.624Z,4.20
2022-12-27T01:53:54.221Z,4.07
2022-12-27T01:54:52.188Z,4.25
2022-12-27T01:56:02.192Z,4.07
2022-12-27T01:56:59.679Z,3.60
2022-12-27T01:58:13.468Z,3.27
2022-12-27T01:59:14.435Z,3.18
2022-12-27T02:00:12.347Z,2.71
2022-12-27T02:01:21.344Z,3.76
2022-12-27T02:02:18.579Z,3.65
2022-12-27T02:03:22.811Z,3.81
2022-12-27T02:04:24.048Z,4.58
2022-12-27T02:05:24.911Z,3.66
2022-12-27T02:06:23.749Z,3.48
2022-12-27T02:07:33.229Z,3.31
2022-12-27T02:08:54.600Z,3.75
2022-12-27T02:09:59.210Z,3.64
2022-12-27T02:10:58.756Z,3.91
2022-12-27T02:11:58.095Z,4.24
2022-12-27T02:12:55.576Z,4.72
2022-12-27T02:13:52.584Z,4.46
2022-12-27T02:14:50.110Z,4.09
2022-12-27T02:15:47.435Z,2.84
2022-12-27T02:16:44.283Z,4.10
2022-12-27T02:17:41.172Z,3.03
2022-12-27T02:18:38.307Z,3.41
2022-12-27T02:19:40.892Z,4.14
2022-12-27T02:21:19.136Z,4.05
2022-12-27T02:23:16.616Z,3.77
2022-12-27T02:24:22.033Z,3.69
2022-12-27T02:25:30.862Z,3.64
2022-12-27T02:26:45.303Z,3.75
2022-12-27T02:28:02.330Z,3.85
2022-12-27T02:29:05.113Z,3.70
2022-12-27T02:30:10.172Z,3.47
2022-12-27T02:31:16.118Z,3.93
2022-12-27T02:32:34.618Z,3.92
2022-12-27T02:33:42.382Z,3.39
2022-12-27T02:35:08.789Z,3.84
2022-12-27T02:36:12.667Z,2.62
2022-12-27T02:37:12.933Z,3.74
2022-12-27T02:38:18.112Z,3.83
2022-12-27T02:39:18.432Z,3.07
2022-12-27T02:40:39.129Z,2.91
2022-12-27T02:41:55.429Z,3.12
2022-12-27T02:43:11.993Z,2.46
2022-12-27T02:44:27.507Z,2.67
2022-12-27T02:45:52.110Z,3.54
2022-12-27T02:47:08.555Z,2.50
2022-12-27T02:48:33.534Z,3.93
2022-12-27T02:49:54.358Z,3.90
2022-12-27T02:51:41.295Z,3.84
2022-12-27T02:53:07.354Z,3.03
2022-12-27T02:54:33.520Z,3.55
2022-12-27T02:56:14.391Z,3.82
2022-12-27T02:57:32.713Z,4.73
2022-12-27T02:58:41.983Z,4.27
2022-12-27T03:00:20.646Z,4.35
2022-12-27T03:01:41.527Z,4.55
2022-12-27T03:03:13.789Z,2.89
2022-12-27T03:04:57.039Z,3.47
2022-12-27T03:06:39.797Z,3.40
2022-12-27T03:08:04.994Z,3.17
2022-12-27T03:09:50.971Z,3.66
2022-12-27T03:11:17.993Z,3.46
2022-12-27T03:13:10.872Z,4.21
2022-12-27T03:14:45.562Z,3.62
2022-12-27T03:15:57.565Z,3.60
2022-12-27T03:17:02.326Z,3.21
2022-12-27T03:18:14.973Z,3.56
2022-12-27T03:19:37.824Z,3.72
2022-12-27T03:20:55.270Z,3.60
2022-12-27T03:22:10.710Z,3.82
2022-12-27T03:23:28.723Z,3.83
2022-12-27T03:24:52.256Z,3.77
2022-12-27T03:25:54.510Z,3.29
2022-12-27T03:26:54.459Z,2.08
2022-12-27T03:28:25.274Z,3.64
2022-12-27T03:29:42.687Z,2.96
2022-12-27T03:31:00.562Z,3.66
2022-12-27T03:32:22.999Z,3.62
2022-12-27T03:33:19.995Z,3.21
2022-12-27T03:34:32.101Z,2.24
2022-12-27T03:35:35.497Z,2.49
2022-12-27T03:36:53.173Z,3.82
2022-12-27T03:38:05.165Z,2.72
2022-12-27T03:39:33.453Z,3.40
2022-12-27T03:41:04.058Z,3.83
2022-12-27T03:42:26.195Z,2.29
2022-12-27T03:43:23.082Z,3.68
2022-12-27T03:44:26.440Z,3.74
2022-12-27T03:45:43.154Z,4.44
2022-12-27T03:46:43.562Z,4.47
2022-12-27T03:47:55.335Z,3.96
2022-12-27T03:49:19.889Z,3.85
2022-12-27T03:50:28.784Z,2.92
2022-12-27T03:51:32.419Z,2.99
2022-12-27T03:52:48.432Z,2.46
2022-12-27T03:53:48.793Z,3.78
2022-12-27T03:54:50.287Z,3.58
2022-12-27T03:55:48.152Z,3.03
2022-12-27T03:56:45.022Z,3.42
2022-12-27T03:57:42.729Z,3.00
2022-12-27T03:58:39.634Z,3.91
2022-12-27T03:59:36.641Z,3.56
2022-12-27T04:00:33.531Z,0.24
2022-12-27T04:01:30.397Z,2.90
2022-12-27T04:02:27.399Z,2.85
2022-12-27T04:03:24.414Z,3.68
2022-12-27T04:04:24.113Z,2.68
2022-12-27T04:05:20.945Z,4.34
2022-12-27T04:06:17.742Z,3.98
2022-12-27T04:07:16.071Z,2.85
2022-12-27T04:08:31.671Z,3.09
2022-12-27T04:09:47.159Z,1.59
2022-12-27T04:11:04.707Z,2.53
2022-12-27T04:12:20.280Z,3.00
2022-12-27T04:13:35.846Z,3.43
2022-12-27T04:14:51.474Z,2.53
2022-12-27T04:16:06.970Z,3.16
2022-12-27T04:17:22.381Z,3.13
2022-12-27T04:18:37.473Z,4.20
2022-12-27T04:19:52.935Z,4.50
2022-12-27T04:21:08.507Z,4.06
2022-12-27T04:22:24.190Z,4.16
2022-12-27T04:23:40.135Z,3.77
2022-12-27T04:24:55.581Z,4.57
2022-12-27T04:26:11.155Z,4.38
2022-12-27T04:27:26.673Z,4.84
2022-12-27T04:28:42.141Z,4.67
2022-12-27T04:29:57.495Z,3.81
2022-12-27T04:31:12.951Z,2.99
2022-12-27T04:32:28.574Z,4.25
2022-12-27T04:33:44.108Z,4.58
2022-12-27T04:34:43.665Z,3.89
2022-12-27T04:35:40.556Z,3.43
2022-12-27T04:36:37.498Z,2.52
2022-12-27T04:37:34.325Z,2.96
2022-12-27T04:38:34.096Z,2.33
2022-12-27T04:39:31.190Z,2.84
2022-12-27T04:40:46.453Z,2.96
2022-12-27T04:42:01.946Z,3.17
2022-12-27T04:43:19.801Z,2.56
2022-12-27T04:44:36.347Z,3.39
2022-12-27T04:45:51.954Z,3.34
2022-12-27T04:47:07.488Z,3.67
2022-12-27T04:48:23.846Z,3.77
2022-12-27T04:49:45.393Z,3.92
2022-12-27T04:51:00.939Z,3.87
2022-12-27T04:52:16.579Z,3.92
2022-12-27T04:53:38.317Z,2.55
2022-12-27T04:54:53.763Z,2.77
2022-12-27T04:55:50.558Z,3.38
2022-12-27T04:56:47.320Z,3.27
2022-12-27T04:57:44.107Z,2.20
2022-12-27T04:59:00.866Z,2.54
2022-12-27T05:00:17.927Z,3.00
2022-12-27T05:01:33.574Z,3.84
2022-12-27T05:02:30.689Z,3.87
2022-12-27T05:03:27.783Z,3.50
2022-12-27T05:04:27.841Z,2.80
2022-12-27T05:05:25.788Z,1.29
2022-12-27T05:06:22.944Z,3.63
2022-12-27T05:07:39.317Z,3.29
2022-12-27T05:08:55.336Z,3.30
2022-12-27T05:10:11.158Z,3.56
2022-12-27T05:11:27.213Z,4.05
2022-12-27T05:12:42.609Z,4.03
2022-12-27T05:13:57.858Z,2.10
2022-12-27T05:14:54.806Z,2.88
2022-12-27T05:15:51.661Z,3.19
2022-12-27T05:16:48.590Z,3.39
2022-12-27T05:17:45.409Z,3.14
2022-12-27T05:18:42.411Z,3.30
2022-12-27T05:19:39.170Z,3.37
2022-12-27T05:20:35.938Z,2.60
2022-12-27T05:22:06.008Z,3.22
2022-12-27T05:23:21.256Z,3.46
2022-12-27T05:24:36.702Z,3.17
2022-12-27T05:25:38.328Z,2.71
2022-12-27T05:26:38.406Z,3.28
2022-12-27T05:27:35.248Z,3.92
2022-12-27T05:28:32.089Z,4.33
2022-12-27T05:29:30.804Z,1.97
2022-12-27T05:30:27.948Z,3.95
2022-12-27T05:31:26.559Z,4.02
2022-12-27T05:32:23.429Z,3.86
2022-12-27T05:33:20.264Z,3.26
2022-12-27T05:34:16.981Z,3.60
2022-12-27T05:35:13.890Z,2.36
2022-12-27T05:36:10.655Z,2.54
2022-12-27T05:37:08.572Z,3.65
2022-12-27T05:38:05.542Z,3.58
2022-12-27T05:39:02.538Z,3.68
2022-12-27T05:39:59.324Z,3.40
2022-12-27T05:41:00.644Z,3.43
2022-12-27T05:41:57.399Z,3.86
2022-12-27T05:42:54.856Z,2.88
2022-12-27T05:43:52.430Z,3.65
2022-12-27T05:44:49.214Z,4.19
2022-12-27T05:45:45.945Z,4.76
2022-12-27T05:46:42.790Z,4.67
2022-12-27T05:47:40.139Z,4.48
2022-12-27T05:48:37.761Z,3.46
2022-12-27T05:49:34.484Z,3.68
2022-12-27T05:50:31.478Z,3.42
2022-12-27T05:51:28.377Z,4.35
2022-12-27T05:52:25.274Z,3.99
2022-12-27T05:53:22.022Z,3.14
2022-12-27T05:54:18.810Z,4.17
2022-12-27T05:55:15.787Z,4.32
2022-12-27T05:56:18.260Z,4.36
2022-12-27T05:57:15.094Z,4.22
2022-12-27T05:58:11.992Z,4.24
2022-12-27T05:59:08.914Z,3.95
2022-12-27T06:00:06.781Z,3.87
2022-12-27T06:01:10.167Z,3.93
2022-12-27T06:02:07.101Z,2.16
2022-12-27T06:03:04.237Z,2.92
2022-12-27T06:04:01.096Z,3.32
2022-12-27T06:04:59.226Z,3.31
2022-12-27T06:06:04.282Z,3.31
2022-12-27T06:07:01.120Z,3.54
2022-12-27T06:07:58.147Z,1.86
2022-12-27T06:08:54.955Z,3.25
2022-12-27T06:09:51.775Z,2.92
2022-12-27T06:10:48.532Z,4.45
2022-12-27T06:11:45.266Z,3.34
2022-12-27T06:12:42.066Z,3.39
2022-12-27T06:13:42.228Z,3.60
2022-12-27T06:14:39.048Z,3.71
2022-12-27T06:15:37.094Z,4.27
2022-12-27T06:16:33.928Z,3.99
2022-12-27T06:17:30.881Z,4.33
2022-12-27T06:18:33.245Z,4.16
2022-12-27T06:19:30.076Z,4.19
2022-12-27T06:20:27.385Z,4.45
2022-12-27T06:21:24.389Z,3.57
2022-12-27T06:22:21.118Z,3.68
2022-12-27T06:23:20.024Z,3.93
2022-12-27T06:24:17.421Z,3.42
2022-12-27T06:25:14.837Z,3.13
2022-12-27T06:26:18.124Z,2.80
2022-12-27T06:27:18.931Z,2.48
2022-12-27T06:28:15.746Z,2.99
2022-12-27T06:29:21.553Z,3.30
2022-12-27T06:30:18.335Z,2.73
2022-12-27T06:31:19.280Z,2.91
2022-12-27T06:32:17.823Z,3.45
2022-12-27T06:33:14.653Z,2.58
2022-12-27T06:34:11.759Z,2.77
2022-12-27T06:35:11.386Z,2.70
2022-12-27T06:36:13.754Z,2.93
2022-12-27T06:37:14.692Z,3.44
2022-12-27T06:38:11.554Z,4.06
2022-12-27T06:39:08.405Z,3.58
2022-12-27T06:40:05.763Z,3.87
2022-12-27T06:41:08.342Z,3.12
2022-12-27T06:42:07.587Z,3.41
2022-12-27T06:43:04.325Z,3.41
2022-12-27T06:44:01.146Z,3.36
2022-12-27T06:44:57.957Z,2.90
2022-12-27T06:46:12.321Z,3.38
2022-12-27T06:47:22.626Z,3.56
2022-12-27T06:48:19.372Z,3.43
2022-12-27T06:49:26.597Z,3.41
2022-12-27T06:50:23.511Z,2.78
2022-12-27T06:51:21.453Z,3.06
2022-12-27T06:52:18.309Z,2.92
2022-12-27T06:53:15.091Z,4.02
2022-12-27T06:54:13.963Z,2.82
2022-12-27T06:55:10.746Z,3.11
2022-12-27T06:56:13.275Z,4.13
2022-12-27T06:57:10.086Z,4.26
2022-12-27T06:58:06.844Z,3.35
2022-12-27T06:59:03.773Z,3.74
2022-12-27T07:00:00.664Z,4.58
2022-12-27T07:00:57.500Z,2.98
2022-12-27T07:01:57.104Z,3.65
2022-12-27T07:02:55.942Z,4.21
2022-12-27T07:04:06.662Z,4.05
2022-12-27T07:05:08.274Z,4.22
2022-12-27T07:06:12.001Z,4.72
2022-12-27T07:07:15.588Z,3.23
2022-12-27T07:08:12.994Z,3.43
2022-12-27T07:09:09.845Z,4.69
2022-12-27T07:10:14.657Z,4.50
2022-12-27T07:11:13.487Z,4.57
2022-12-27T07:12:15.028Z,1.32
2022-12-27T07:13:13.209Z,4.63
2022-12-27T07:14:12.788Z,4.94
2022-12-27T07:15:16.028Z,5.26
2022-12-27T07:16:20.392Z,5.20
2022-12-27T07:17:19.963Z,5.97
2022-12-27T07:18:16.709Z,5.58
2022-12-27T07:19:13.634Z,6.11
2022-12-27T07:20:15.614Z,5.28
2022-12-27T07:22:50.740Z,5.02
2022-12-27T07:24:00.473Z,-0.08
2022-12-27T07:25:01.605Z,4.38
2022-12-27T07:26:37.291Z,5.75
2022-12-27T07:27:53.619Z,4.05
2022-12-27T07:28:54.951Z,3.99
2022-12-27T07:29:52.004Z,4.20
2022-12-27T07:30:53.102Z,2.82
2022-12-27T07:31:53.117Z,3.42
2022-12-27T07:32:53.770Z,2.31
2022-12-27T07:33:53.702Z,4.53
2022-12-27T07:34:56.160Z,3.39
2022-12-27T07:36:03.900Z,4.28
2022-12-27T07:37:00.751Z,4.45
2022-12-27T07:38:10.883Z,5.65
2022-12-27T07:39:19.697Z,3.06
2022-12-27T07:40:25.647Z,2.17
2022-12-27T07:41:50.513Z,3.37
2022-12-27T07:42:50.524Z,2.90
2022-12-27T07:43:51.789Z,1.31
2022-12-27T07:45:09.695Z,1.73
2022-12-27T07:46:11.331Z,5.57
2022-12-27T07:47:40.157Z,2.27
2022-12-27T07:49:00.420Z,3.90
2022-12-27T07:52:24.715Z,2.27
2022-12-27T07:54:00.763Z,6.00
2022-12-27T07:55:04.089Z,5.04
2022-12-27T07:56:26.119Z,6.35
2022-12-27T07:57:24.760Z,3.90
2022-12-27T07:58:31.807Z,4.37
2022-12-27T07:59:32.917Z,5.40
2022-12-27T08:00:30.255Z,5.83
2022-12-27T08:01:54.864Z,5.34
2022-12-27T08:02:58.347Z,6.40
2022-12-27T08:05:27.564Z,3.30
2022-12-27T08:06:38.813Z,4.95
2022-12-27T08:07:39.352Z,5.79
2022-12-27T08:08:45.034Z,4.99
2022-12-27T08:09:49.892Z,6.19
2022-12-27T08:10:59.341Z,6.61
2022-12-27T08:12:14.274Z,5.30
2022-12-27T08:13:11.325Z,5.52
2022-12-27T08:14:08.139Z,6.66
2022-12-27T08:15:05.384Z,6.60
2022-12-27T08:16:06.274Z,5.77
2022-12-27T08:17:14.637Z,6.21
2022-12-27T08:18:11.439Z,6.34
2022-12-27T08:20:21.624Z,5.52
2022-12-27T08:21:21.287Z,5.54
2022-12-27T08:22:20.131Z,6.02
2022-12-27T08:23:17.303Z,5.26
2022-12-27T08:25:28.850Z,4.43
2022-12-27T08:26:25.720Z,6.44
2022-12-27T08:27:24.621Z,5.02
2022-12-27T08:28:23.689Z,5.40
2022-12-27T08:29:20.611Z,4.69
2022-12-27T08:30:20.077Z,5.86
2022-12-27T08:31:19.450Z,5.60
2022-12-27T08:32:21.092Z,4.83
2022-12-27T08:33:19.635Z,5.83
2022-12-27T08:34:19.155Z,6.02
2022-12-27T08:35:50.875Z,5.60
2022-12-27T08:37:49.660Z,6.61
2022-12-27T08:38:46.442Z,6.55
2022-12-27T08:39:48.022Z,6.45
2022-12-27T08:40:50.286Z,1.98
2022-12-27T08:41:47.640Z,6.53
2022-12-27T08:42:47.556Z,5.82
2022-12-27T08:43:44.396Z,6.04
2022-12-27T08:44:41.296Z,6.85
2022-12-27T08:45:39.869Z,6.75
2022-12-27T08:46:41.999Z,6.80
2022-12-27T08:47:44.123Z,6.85
2022-12-27T08:48:43.304Z,7.09
2022-12-27T08:49:40.220Z,7.26
2022-12-27T08:50:55.777Z,7.42
2022-12-27T08:52:01.740Z,6.62
2022-12-27T08:53:15.371Z,5.92
2022-12-27T08:54:47.039Z,7.53
2022-12-27T08:55:46.706Z,6.88
2022-12-27T08:56:51.443Z,6.65
2022-12-27T08:57:58.725Z,7.13
2022-12-27T08:58:58.154Z,6.62
2022-12-27T09:00:04.069Z,6.75
2022-12-27T09:01:13.660Z,6.19
2022-12-27T09:02:30.436Z,3.45
2022-12-27T09:03:34.194Z,3.72
2022-12-27T09:04:36.128Z,7.41
2022-12-27T09:05:41.361Z,5.82
2022-12-27T09:06:43.191Z,5.21
2022-12-27T09:07:40.009Z,8.14
2022-12-27T09:08:40.127Z,6.59
2022-12-27T09:09:36.831Z,7.19
2022-12-27T09:10:39.216Z,7.96
2022-12-27T09:11:50.484Z,6.64
2022-12-27T09:12:47.767Z,3.87
2022-12-27T09:13:51.338Z,6.72
2022-12-27T09:15:19.495Z,4.46
2022-12-27T09:16:22.014Z,4.12
2022-12-27T09:17:32.988Z,8.46
2022-12-27T09:18:32.842Z,7.93
2022-12-27T09:19:35.482Z,8.61
2022-12-27T09:20:39.775Z,8.31
2022-12-27T09:21:43.077Z,7.48
2022-12-27T09:22:44.615Z,7.97
2022-12-27T09:23:49.675Z,5.43
2022-12-27T09:25:03.511Z,4.46
2022-12-27T09:26:54.488Z,8.70
2022-12-27T09:27:53.559Z,4.83
2022-12-27T09:29:06.869Z,4.62
2022-12-27T09:30:09.728Z,9.12
2022-12-27T09:31:18.859Z,9.21
2022-12-27T09:32:15.838Z,9.19
2022-12-27T09:33:18.924Z,7.98
2022-12-27T09:34:15.748Z,9.30
2022-12-27T09:35:15.744Z,9.44
2022-12-27T09:36:16.791Z,9.22
2022-12-27T09:37:16.383Z,9.10
2022-12-27T09:38:13.259Z,7.90
2022-12-27T09:39:27.912Z,9.31
2022-12-27T09:40:24.735Z,9.28
2022-12-27T09:42:47.693Z,9.43
2022-12-27T09:44:01.378Z,6.11
2022-12-27T09:45:23.810Z,7.31
2022-12-27T09:46:48.381Z,8.27
2022-12-27T09:47:50.704Z,9.77
2022-12-27T09:48:51.521Z,9.32
2022-12-27T09:49:59.834Z,9.83
2022-12-27T09:51:03.621Z,9.61
2022-12-27T09:52:12.555Z,9.75
2022-12-27T09:53:17.620Z,9.76
2022-12-27T09:54:25.931Z,9.27
2022-12-27T09:56:01.261Z,9.67
2022-12-27T09:57:19.547Z,9.70
2022-12-27T09:58:36.094Z,9.29
2022-12-27T09:59:59.173Z,8.38
2022-12-27T10:01:00.615Z,8.31
2022-12-27T10:01:57.618Z,8.87
2022-12-27T10:02:54.699Z,9.87
2022-12-27T10:03:55.235Z,8.71
2022-12-27T10:06:26.192Z,10.35
2022-12-27T10:07:47.951Z,10.19
2022-12-27T10:09:07.833Z,7.56
2022-12-27T10:10:20.394Z,10.05
2022-12-27T10:11:43.528Z,9.94
2022-12-27T10:13:08.168Z,9.58
2022-12-27T10:14:25.808Z,10.15
2022-12-27T10:15:28.483Z,9.97
2022-12-27T10:16:48.570Z,9.95
2022-12-27T10:18:03.627Z,9.95
2022-12-27T10:19:28.016Z,10.04
2022-12-27T10:21:12.493Z,9.94
2022-12-27T10:22:36.706Z,10.35
2022-12-27T10:23:38.250Z,10.07
2022-12-27T10:24:48.080Z,10.35
2022-12-27T10:25:47.458Z,10.41
2022-12-27T10:26:45.975Z,10.14
2022-12-27T10:27:42.885Z,10.24
2022-12-27T10:28:57.123Z,10.40
2022-12-27T10:29:57.328Z,10.43
2022-12-27T10:30:54.404Z,10.39
2022-12-27T10:31:51.948Z,10.45
2022-12-27T10:32:49.895Z,9.00
2022-12-27T10:33:53.346Z,10.25
2022-12-27T10:35:02.778Z,10.11
2022-12-27T10:36:09.432Z,10.02
2022-12-27T10:37:15.777Z,10.33
2022-12-27T10:38:12.603Z,9.08
2022-12-27T10:39:19.920Z,10.38
2022-12-27T10:40:34.637Z,10.43
2022-12-27T10:41:54.223Z,10.53
2022-12-27T10:43:03.878Z,10.22
2022-12-27T10:44:00.784Z,9.81
2022-12-27T10:45:41.157Z,10.35
2022-12-27T10:46:41.434Z,10.49
2022-12-27T10:47:38.623Z,10.26
2022-12-27T10:49:10.898Z,10.61
2022-12-27T10:50:15.297Z,10.71
2022-12-27T10:51:12.377Z,10.29
2022-12-27T10:52:28.517Z,10.77
2022-12-27T10:53:38.324Z,9.00
2022-12-27T10:54:50.428Z,10.80
2022-12-27T10:55:49.875Z,10.55
2022-12-27T10:56:47.640Z,10.54
2022-12-27T10:57:44.511Z,11.00
2022-12-27T10:58:58.203Z,10.92
2022-12-27T11:00:15.653Z,11.18
2022-12-27T11:01:17.944Z,10.50
2022-12-27T11:02:18.804Z,10.34
2022-12-27T11:03:19.710Z,10.97
2022-12-27T11:04:24.564Z,10.98
2022-12-27T11:05:28.001Z,10.86
2022-12-27T11:06:31.559Z,10.34
2022-12-27T11:07:34.145Z,10.01
2022-12-27T11:08:40.189Z,10.27
2022-12-27T11:09:50.339Z,11.14
2022-12-27T11:10:48.075Z,10.16
2022-12-27T11:11:44.878Z,10.37
2022-12-27T11:13:00.559Z,10.65
2022-12-27T11:14:11.638Z,10.32
2022-12-27T11:15:20.256Z,10.75
2022-12-27T11:16:34.765Z,10.85
2022-12-27T11:17:49.462Z,10.87
2022-12-27T11:18:53.719Z,11.19
2022-12-27T11:19:50.889Z,11.27
2022-12-27T11:20:50.381Z,11.14
2022-12-27T11:21:47.515Z,10.63
2022-12-27T11:23:16.234Z,11.46
2022-12-27T11:24:17.981Z,11.11
2022-12-27T11:25:19.511Z,11.30
2022-12-27T11:26:26.935Z,10.41
2022-12-27T11:27:30.868Z,10.71
2022-12-27T11:28:42.345Z,11.17
2022-12-27T11:29:45.692Z,11.49
2022-12-27T11:31:00.262Z,11.26
2022-12-27T11:32:08.488Z,10.12
2022-12-27T11:33:44.228Z,11.87
2022-12-27T11:35:27.631Z,10.95
2022-12-27T11:36:33.056Z,11.99
2022-12-27T11:37:36.175Z,11.38
2022-12-27T11:38:36.662Z,11.82
2022-12-27T11:39:47.249Z,11.17
2022-12-27T11:41:01.993Z,12.05
2022-12-27T11:42:02.398Z,11.72
2022-12-27T11:43:15.568Z,12.21
2022-12-27T11:44:22.680Z,11.83
2022-12-27T11:45:33.438Z,11.27
2022-12-27T11:47:08.935Z,12.46
2022-12-27T11:48:21.054Z,12.48
2022-12-27T11:49:26.309Z,12.65
2022-12-27T11:50:28.861Z,12.72
2022-12-27T11:51:56.699Z,12.82
2022-12-27T11:53:08.333Z,12.47
2022-12-27T11:54:35.283Z,12.14
2022-12-27T11:55:56.503Z,12.74
2022-12-27T11:57:01.586Z,12.49
2022-12-27T11:58:30.299Z,12.66
2022-12-27T11:59:59.794Z,12.40
2022-12-27T12:01:00.554Z,12.44
2022-12-27T12:02:41.744Z,11.89
2022-12-27T12:04:04.940Z,12.51
2022-12-27T12:05:32.194Z,12.54
2022-12-27T12:06:34.818Z,12.52
2022-12-27T12:07:40.105Z,12.62
2022-12-27T12:08:39.512Z,12.54
2022-12-27T12:09:53.903Z,12.63
2022-12-27T12:11:14.756Z,12.85
2022-12-27T12:12:32.376Z,12.79
2022-12-27T12:13:57.372Z,12.67
2022-12-27T12:15:25.332Z,10.23
2022-12-27T12:16:37.026Z,12.43
2022-12-27T12:18:08.128Z,12.97
2022-12-27T12:19:07.793Z,13.02
2022-12-27T12:20:34.455Z,12.95
2022-12-27T12:22:00.188Z,13.19
2022-12-27T12:23:32.446Z,13.45
2022-12-27T12:24:42.185Z,13.34
2022-12-27T12:26:11.878Z,13.09
2022-12-27T12:27:46.646Z,13.58
2022-12-27T12:29:01.580Z,13.60
2022-12-27T12:30:16.701Z,13.53
2022-12-27T12:31:25.254Z,13.69
2022-12-27T12:32:52.786Z,13.76
2022-12-27T12:33:55.228Z,13.89
2022-12-27T12:35:21.572Z,13.71
2022-12-27T12:36:21.322Z,13.86
2022-12-27T12:37:32.862Z,13.71
2022-12-27T12:38:52.668Z,13.87
2022-12-27T12:40:18.693Z,13.94
2022-12-27T12:41:37.396Z,14.06
2022-12-27T12:43:14.030Z,14.10
2022-12-27T12:44:16.204Z,14.06
2022-12-27T12:45:32.995Z,13.98
2022-12-27T12:46:57.738Z,13.79
2022-12-27T12:48:25.804Z,14.24
2022-12-27T12:49:31.471Z,14.25
2022-12-27T12:50:52.993Z,13.94
2022-12-27T12:52:10.804Z,14.17
2022-12-27T12:53:34.503Z,14.22
2022-12-27T12:55:09.060Z,14.15
2022-12-27T12:56:34.506Z,14.06
2022-12-27T12:57:31.299Z,14.21
2022-12-27T12:58:59.914Z,14.09
2022-12-27T13:00:35.670Z,13.96
2022-12-27T13:02:06.553Z,14.00
2022-12-27T13:03:47.517Z,14.00
2022-12-27T13:05:24.646Z,13.90
2022-12-27T13:06:39.270Z,13.97
2022-12-27T13:08:09.650Z,14.08
2022-12-27T13:09:24.772Z,14.14
2022-12-27T13:11:00.252Z,12.67
2022-12-27T13:12:24.924Z,13.84
2022-12-27T13:14:01.644Z,13.78
2022-12-27T13:15:02.396Z,13.86
2022-12-27T13:16:12.713Z,13.31
2022-12-27T13:17:32.052Z,14.00
2022-12-27T13:18:59.521Z,13.98
2022-12-27T13:20:35.143Z,13.90
2022-12-27T13:22:22.925Z,13.79
2022-12-27T13:23:34.659Z,13.72
2022-12-27T13:24:55.246Z,13.73
2022-12-27T13:26:11.953Z,13.64
2022-12-27T13:27:56.281Z,13.07
2022-12-27T13:29:07.940Z,13.66
2022-12-27T13:30:20.444Z,13.85
2022-12-27T13:31:59.641Z,13.69
2022-12-27T13:32:59.134Z,13.53
2022-12-27T13:33:57.210Z,13.53
2022-12-27T13:35:31.287Z,13.72
2022-12-27T13:37:25.131Z,13.60
2022-12-27T13:38:54.220Z,13.60
2022-12-27T13:40:29.747Z,13.21
2022-12-27T13:41:32.296Z,13.55
2022-12-27T13:42:35.097Z,13.70
2022-12-27T13:43:56.686Z,13.58
2022-12-27T13:44:53.396Z,13.46
2022-12-27T13:46:25.190Z,13.63
2022-12-27T13:47:54.648Z,13.51
2022-12-27T13:49:09.745Z,13.50
2022-12-27T13:50:34.324Z,13.47
2022-12-27T13:51:50.815Z,13.38
2022-12-27T13:53:00.123Z,13.28
2022-12-27T13:53:57.211Z,13.41
2022-12-27T13:55:18.403Z,13.43
2022-12-27T13:56:55.641Z,13.34
2022-12-27T13:58:26.383Z,13.53
2022-12-27T13:59:44.427Z,13.36
2022-12-27T14:00:55.198Z,13.20
2022-12-27T14:02:19.911Z,13.16
2022-12-27T14:03:49.069Z,13.36
2022-12-27T14:05:20.394Z,13.24
2022-12-27T14:06:26.818Z,13.38
2022-12-27T14:07:52.375Z,13.26
2022-12-27T14:09:23.066Z,13.16
2022-12-27T14:10:28.652Z,13.25
2022-12-27T14:11:47.698Z,13.26
2022-12-27T14:12:47.118Z,13.19
2022-12-27T14:13:48.395Z,12.30
2022-12-27T14:14:50.254Z,13.20
2022-12-27T14:16:04.838Z,13.14
2022-12-27T14:17:27.177Z,13.06
2022-12-27T14:19:01.352Z,13.30
2022-12-27T14:20:23.804Z,12.82
2022-12-27T14:21:45.887Z,13.03
2022-12-27T14:23:07.090Z,13.23
2022-12-27T14:24:42.384Z,12.95
2022-12-27T14:26:04.876Z,12.67
2022-12-27T14:27:17.872Z,12.69
2022-12-27T14:28:35.878Z,12.77
2022-12-27T14:29:50.858Z,12.46
2022-12-27T14:31:12.387Z,12.60
2022-12-27T14:32:45.244Z,12.51
2022-12-27T14:34:16.859Z,11.73
2022-12-27T14:35:23.326Z,12.66
2022-12-27T14:36:57.676Z,12.48
2022-12-27T14:38:24.802Z,12.48
2022-12-27T14:39:42.595Z,12.26
2022-12-27T14:40:54.798Z,12.24
2022-12-27T14:42:09.800Z,12.56
2022-12-27T14:43:43.778Z,12.45
2022-12-27T14:45:18.115Z,12.58
2022-12-27T14:46:42.570Z,12.60
2022-12-27T14:47:54.548Z,12.55
2022-12-27T14:49:12.411Z,12.33
2022-12-27T14:50:46.862Z,12.47
2022-12-27T14:52:08.778Z,12.32
2022-12-27T14:53:36.987Z,12.33
2022-12-27T14:55:00.778Z,12.16
2022-12-27T14:56:23.206Z,11.89
2022-12-27T14:57:56.184Z,12.31
2022-12-27T14:59:35.683Z,12.37
2022-12-27T15:01:20.649Z,8.82
2022-12-27T15:02:42.443Z,12.14
2022-12-27T15:04:16.080Z,11.83
2022-12-27T15:05:38.506Z,12.00
2022-12-27T15:07:20.416Z,12.15
2022-12-27T15:08:51.878Z,11.34
2022-12-27T15:10:22.015Z,12.28